Time;durP1;ratioP1;P1;durP2;ratioP2;P2;SDS_P1;SDS_P2;PMS_P1;PMS_P2;Temp;Humidity;BMP_temperature;BMP_pressure;BME280_temperature;BME280_humidity;BME280_pressure;Samples;Min_cycle;Max_cycle;Signal;HPM_P1;HPM_P2
2023/05/25 00:00:31;;;;;;;13.70;12.50;;;;;;;13.47;68.07;100983.16;111562;1249;22322;-81
2023/05/25 00:03:27;;;;;;;14.10;12.70;;;;;;;13.47;68.18;100987.16;111847;1249;21998;-80
2023/05/25 00:06:04;;;;;;;13.70;12.50;;;;;;;13.50;68.20;100982.67;112199;1243;21958;-80
2023/05/25 00:08:33;;;;;;;15.40;13.40;;;;;;;13.53;68.21;100971.20;112606;1244;21965;-81
2023/05/25 00:11:05;;;;;;;12.80;11.10;;;;;;;13.53;68.03;100969.95;112696;1243;21949;-81
2023/05/25 00:13:41;;;;;;;13.30;11.70;;;;;;;13.52;68.06;100974.21;112338;1243;23013;-81
2023/05/25 00:16:13;;;;;;;13.10;11.90;;;;;;;13.51;68.08;100974.59;112358;1243;23021;-81
2023/05/25 00:18:42;;;;;;;13.20;11.80;;;;;;;13.52;68.23;100974.73;112483;1239;21972;-81
2023/05/25 00:21:12;;;;;;;14.10;12.70;;;;;;;13.52;68.16;100980.00;112969;1239;23085;-82
2023/05/25 00:23:45;;;;;;;13.40;12.00;;;;;;;13.50;68.20;100982.13;112304;1243;23604;-82
2023/05/25 00:26:14;;;;;;;12.30;11.00;;;;;;;13.50;68.15;100987.90;112676;1242;21982;-80
2023/05/25 00:28:45;;;;;;;13.20;11.90;;;;;;;13.51;68.25;100991.02;112498;1242;22880;-80
2023/05/25 00:31:13;;;;;;;12.50;11.10;;;;;;;13.53;68.34;100987.10;112417;1246;21982;-80
2023/05/25 00:33:44;;;;;;;14.00;12.80;;;;;;;13.54;68.31;100980.27;112216;1246;22555;-81
2023/05/25 00:36:13;;;;;;;15.00;12.10;;;;;;;13.56;68.21;100982.95;112218;1246;22721;-80
2023/05/25 00:38:45;;;;;;;;;;;;;;;13.56;68.16;100981.41;112523;1246;22075;-79
2023/05/25 00:41:18;;;;;;;13.10;11.90;;;;;;;13.48;68.38;100981.02;112313;1239;23610;-80
2023/05/25 00:43:48;;;;;;;14.00;12.70;;;;;;;13.49;68.48;100978.17;113001;1239;22179;-80
2023/05/25 00:46:21;;;;;;;13.70;12.30;;;;;;;13.51;68.33;100974.95;112986;1239;21983;-81
2023/05/25 00:48:55;;;;;;;14.20;12.50;;;;;;;13.50;68.22;100974.27;113028;1239;21961;-81
2023/05/25 00:51:25;;;;;;;13.30;11.90;;;;;;;13.50;68.18;100971.14;112722;1239;21960;-79
2023/05/25 00:53:53;;;;;;;12.80;11.50;;;;;;;13.49;68.19;100968.39;112125;1246;23714;-79
2023/05/25 00:56:30;;;;;;;12.20;11.10;;;;;;;13.48;68.15;100965.80;112508;1241;23745;-81
2023/05/25 00:59:06;;;;;;;13.90;12.50;;;;;;;13.48;68.24;100964.77;112854;1241;22424;-79
2023/05/25 01:01:39;;;;;;;19.70;12.20;;;;;;;13.48;68.35;100965.29;112061;1246;24305;-80
2023/05/25 01:04:14;;;;;;;12.90;11.70;;;;;;;13.48;68.18;100969.46;112067;1246;21954;-81
2023/05/25 01:06:53;;;;;;;15.10;13.50;;;;;;;13.48;68.28;100969.48;112161;1238;21995;-81
2023/05/25 01:09:27;;;;;;;12.90;11.80;;;;;;;13.47;68.33;100970.20;111603;1250;21951;-79
2023/05/25 01:11:59;;;;;;;13.10;11.90;;;;;;;13.46;68.20;100968.83;111781;1244;22665;-80
2023/05/25 01:14:34;;;;;;;14.80;12.90;;;;;;;13.44;68.29;100971.89;112437;1244;21963;-80
2023/05/25 01:17:09;;;;;;;13.00;11.60;;;;;;;13.44;68.39;100966.28;112472;1237;21992;-81
2023/05/25 01:19:47;;;;;;;12.90;11.60;;;;;;;13.45;68.45;100969.59;112479;1241;21963;-82
2023/05/25 01:22:50;;;;;;;12.70;11.60;;;;;;;13.45;68.43;100973.96;112807;1239;21960;-81
2023/05/25 01:25:53;;;;;;;12.10;10.90;;;;;;;13.45;68.45;100976.40;113085;1239;21962;-82
2023/05/25 01:28:45;;;;;;;12.50;10.40;;;;;;;13.45;68.59;100977.29;112340;1246;21929;-84
2023/05/25 01:31:20;;;;;;;11.60;10.40;;;;;;;13.45;68.58;100978.31;112432;1246;21977;-82
2023/05/25 01:33:57;;;;;;;11.20;10.20;;;;;;;13.46;68.59;100981.45;111978;1247;22375;-82
2023/05/25 01:36:39;;;;;;;13.30;10.40;;;;;;;13.47;68.63;100976.50;112192;1247;22999;-82
2023/05/25 01:39:10;;;;;;;12.70;10.80;;;;;;;13.47;68.52;100980.00;111885;1249;23713;-81
2023/05/25 01:41:41;;;;;;;12.40;11.20;;;;;;;13.46;68.45;100984.05;111459;1254;23645;-80
2023/05/25 01:44:15;;;;;;;11.20;10.10;;;;;;;13.48;68.59;100994.50;111583;1254;23625;-81
2023/05/25 01:46:45;;;;;;;11.90;10.60;;;;;;;13.47;68.48;100994.35;111813;1249;23667;-81
2023/05/25 01:49:30;;;;;;;10.60;9.60;;;;;;;13.46;68.52;100992.80;111659;1249;22019;-79
2023/05/25 01:52:22;;;;;;;13.90;10.80;;;;;;;13.44;68.60;100994.63;112176;1244;22575;-81
2023/05/25 01:55:13;;;;;;;13.00;10.00;;;;;;;13.43;68.66;100994.85;112565;1244;22371;-84
2023/05/25 01:58:00;;;;;;;;;;;;;;;;;;;;;
2023/05/25 02:00:32;;;;;;;12.00;10.50;;;;;;;13.39;68.68;100998.51;112841;1241;21972;-82
2023/05/25 02:03:02;;;;;;;10.90;10.00;;;;;;;13.39;68.80;100998.67;112486;1242;21966;-83
2023/05/25 02:05:37;;;;;;;12.20;11.00;;;;;;;13.38;68.76;100996.59;112693;1242;21965;-83
2023/05/25 02:08:07;;;;;;;11.40;10.20;;;;;;;13.36;68.89;100996.16;112448;1241;21952;-82
2023/05/25 02:10:36;;;;;;;13.30;11.50;;;;;;;13.34;68.76;100995.56;112734;1241;21962;-83
2023/05/25 02:13:11;;;;;;;12.30;11.10;;;;;;;13.33;68.94;100995.39;112774;1241;21969;-82
2023/05/25 02:15:44;;;;;;;11.80;9.30;;;;;;;13.33;68.91;100994.71;112519;1241;21961;-83
2023/05/25 02:18:17;;;;;;;12.80;11.40;;;;;;;13.32;68.82;100994.94;112368;1244;21967;-82
2023/05/25 02:20:46;;;;;;;13.70;10.10;;;;;;;13.30;68.93;100995.50;112658;1244;23678;-82
2023/05/25 02:23:34;;;;;;;17.00;10.60;;;;;;;13.29;69.04;100997.98;112444;1244;22020;-86
2023/05/25 02:26:12;;;;;;;10.60;9.50;;;;;;;13.28;69.00;101000.99;112531;1244;21952;-85
2023/05/25 02:28:41;;;;;;;12.30;10.60;;;;;;;13.28;69.07;100999.93;112375;1244;23709;-83
2023/05/25 02:31:14;;;;;;;10.40;9.50;;;;;;;13.29;69.13;101002.53;112286;1244;21948;-84
2023/05/25 02:33:45;;;;;;;11.30;9.60;;;;;;;13.29;69.20;101004.45;112282;1245;21971;-84
2023/05/25 02:36:17;;;;;;;11.90;10.50;;;;;;;13.27;69.08;101004.52;111988;1246;23003;-83
2023/05/25 02:38:51;;;;;;;10.20;9.30;;;;;;;13.27;69.18;101006.80;112624;1245;22277;-86
2023/05/25 02:41:26;;;;;;;10.70;9.80;;;;;;;13.27;69.17;101009.60;112400;1237;21953;-83
2023/05/25 02:43:58;;;;;;;11.00;9.80;;;;;;;13.28;69.13;101014.63;112367;1245;21971;-84
2023/05/25 02:46:30;;;;;;;11.40;10.40;;;;;;;13.29;69.25;101016.48;112190;1245;21978;-87
2023/05/25 02:49:02;;;;;;;11.70;10.60;;;;;;;13.27;69.17;101017.09;111989;1250;21986;-81
2023/05/25 02:51:35;;;;;;;10.70;9.60;;;;;;;13.26;69.10;101014.18;111808;1250;22108;-82
2023/05/25 02:54:08;;;;;;;10.50;9.50;;;;;;;13.26;69.25;101017.15;112075;1247;23742;-83
2023/05/25 02:56:41;;;;;;;14.10;10.40;;;;;;;13.27;69.23;101019.20;112301;1245;21955;-80
2023/05/25 02:59:20;;;;;;;11.50;10.30;;;;;;;13.29;69.29;101020.88;111945;1248;21979;-80
2023/05/25 03:01:54;;;;;;;11.40;10.20;;;;;;;13.30;69.34;101023.13;112014;1240;21983;-82
2023/05/25 03:04:25;;;;;;;11.10;9.80;;;;;;;13.32;69.28;101027.61;111794;1248;21959;-80
2023/05/25 03:06:55;;;;;;;11.60;10.50;;;;;;;13.34;69.27;101025.98;112237;1241;22376;-79
2023/05/25 03:09:30;;;;;;;11.20;10.10;;;;;;;13.36;69.31;101026.09;112324;1246;21982;-80
2023/05/25 03:12:01;;;;;;;11.60;9.80;;;;;;;13.36;69.17;101030.24;112134;1246;21964;-81
2023/05/25 03:14:33;;;;;;;10.70;9.60;;;;;;;13.38;69.32;101029.49;112153;1246;22973;-81
2023/05/25 03:17:05;;;;;;;10.30;9.30;;;;;;;13.39;69.31;101033.99;112352;1246;23016;-83
2023/05/25 03:19:36;;;;;;;11.20;10.10;;;;;;;13.38;69.26;101038.39;112409;1246;21989;-83
2023/05/25 03:22:06;;;;;;;49.20;44.80;;;;;;;13.37;69.20;101037.02;112307;1246;22850;-81
2023/05/25 03:24:40;;;;;;;12.80;11.50;;;;;;;13.34;69.16;101033.45;112177;1245;21974;-80
2023/05/25 03:27:13;;;;;;;12.10;10.80;;;;;;;13.35;69.17;101037.82;112419;1241;21953;-81
2023/05/25 03:29:42;;;;;;;23.90;21.50;;;;;;;13.34;69.25;101035.58;113032;1241;21986;-82
2023/05/25 03:32:11;;;;;;;15.80;11.90;;;;;;;13.36;69.38;101033.40;112829;1241;21984;-81
2023/05/25 03:34:41;;;;;;;12.20;11.00;;;;;;;13.38;69.46;101036.48;112273;1246;21963;-80
2023/05/25 03:37:15;;;;;;;11.60;10.40;;;;;;;13.39;69.56;101038.01;111986;1249;22106;-81
2023/05/25 03:39:43;;;;;;;11.40;10.30;;;;;;;13.40;69.52;101037.07;111051;1256;23043;-82
2023/05/25 03:42:17;;;;;;;15.70;11.10;;;;;;;13.40;69.41;101032.89;111404;1252;21983;-80
2023/05/25 03:44:46;;;;;;;13.60;12.20;;;;;;;13.41;69.55;101037.04;111573;1248;22417;-80
2023/05/25 03:47:15;;;;;;;12.90;11.50;;;;;;;13.42;69.52;101041.02;111357;1255;23031;-81
2023/05/25 03:49:45;;;;;;;15.20;11.60;;;;;;;13.42;69.35;101040.15;111331;1255;22095;-81
2023/05/25 03:52:14;;;;;;;12.40;10.60;;;;;;;13.43;69.57;101041.52;111362;1251;22432;-81
2023/05/25 03:54:43;;;;;;;15.20;11.20;;;;;;;13.44;69.56;101044.96;111787;1243;23745;-81
2023/05/25 03:57:13;;;;;;;16.00;11.40;;;;;;;13.46;69.50;101046.14;112206;1241;22041;-81
2023/05/25 03:59:42;;;;;;;13.10;11.70;;;;;;;13.45;69.46;101047.90;112736;1241;23788;-83
2023/05/25 04:02:18;;;;;;;12.10;10.90;;;;;;;13.45;69.43;101046.84;112906;1240;21971;-83
2023/05/25 04:04:50;;;;;;;15.10;11.00;;;;;;;13.46;69.50;101050.66;112765;1235;21960;-82
2023/05/25 04:07:20;;;;;;;12.80;11.60;;;;;;;13.48;69.55;101053.05;113346;1235;23675;-79
2023/05/25 04:09:52;;;;;;;16.70;12.40;;;;;;;13.50;69.57;101052.60;113276;1235;22301;-82
2023/05/25 04:12:22;;;;;;;12.50;11.20;;;;;;;13.52;69.43;101054.30;113462;1235;24377;-84
2023/05/25 04:14:55;;;;;;;11.80;10.50;;;;;;;13.54;69.54;101056.32;113582;1235;21941;-83
2023/05/25 04:17:25;;;;;;;15.20;10.50;;;;;;;13.56;69.55;101056.41;113645;1235;22103;-83
2023/05/25 04:19:55;;;;;;;12.40;10.60;;;;;;;13.58;69.49;101057.39;113537;1235;21967;-82
2023/05/25 04:22:24;;;;;;;12.40;11.20;;;;;;;13.60;69.59;101056.95;113329;1235;21960;-82
2023/05/25 04:24:53;;;;;;;13.30;12.00;;;;;;;13.63;69.57;101053.52;113460;1235;21938;-81
2023/05/25 04:27:25;;;;;;;20.10;12.00;;;;;;;13.67;69.56;101053.54;112870;1241;22039;-81
2023/05/25 04:29:57;;;;;;;12.70;11.00;;;;;;;13.71;69.70;101054.05;112522;1246;21982;-83
2023/05/25 04:33:06;;;;;;;15.20;11.40;;;;;;;13.75;69.77;101053.90;112259;1245;21962;-82
2023/05/25 04:35:49;;;;;;;15.40;11.50;;;;;;;13.80;69.69;101056.86;112355;1246;21955;-82
2023/05/25 04:38:19;;;;;;;12.60;11.30;;;;;;;13.87;69.68;101056.42;111848;1250;21956;-81
2023/05/25 04:40:56;;;;;;;12.10;10.90;;;;;;;13.92;69.45;101054.61;112041;1250;22197;-82
2023/05/25 04:43:32;;;;;;;12.90;11.60;;;;;;;13.98;69.62;101056.31;111852;1250;23107;-82
2023/05/25 04:46:07;;;;;;;23.80;12.70;;;;;;;14.04;69.43;101055.17;112251;1246;21962;-82
2023/05/25 04:48:40;;;;;;;15.10;12.00;;;;;;;14.11;69.23;101057.02;112137;1246;23759;-81
2023/05/25 04:51:12;;;;;;;15.40;11.60;;;;;;;14.15;68.99;101054.38;111847;1246;21970;-80
2023/05/25 04:53:43;;;;;;;14.40;12.30;;;;;;;14.18;69.10;101049.20;111996;1246;22044;-80
2023/05/25 04:56:15;;;;;;;16.30;13.00;;;;;;;14.25;69.04;101055.04;111633;1252;22187;-80
2023/05/25 04:58:55;;;;;;;16.20;12.30;;;;;;;14.32;69.03;101058.94;111640;1252;22044;-80
2023/05/25 05:01:25;;;;;;;14.30;12.30;;;;;;;14.39;68.84;101058.98;111404;1252;21975;-79
2023/05/25 05:04:02;;;;;;;14.00;11.30;;;;;;;14.49;68.77;101060.64;111704;1248;21959;-79
2023/05/25 05:06:35;;;;;;;20.10;12.10;;;;;;;14.60;68.67;101060.58;112234;1242;22004;-81
2023/05/25 05:09:13;;;;;;;18.30;13.30;;;;;;;14.71;68.79;101057.13;111958;1247;22001;-79
2023/05/25 05:11:41;;;;;;;16.70;11.80;;;;;;;14.90;68.96;101053.50;111978;1248;22031;-79
2023/05/25 05:14:13;;;;;;;12.50;10.10;;;;;;;15.23;69.63;101053.73;112229;1241;21997;-79
2023/05/25 05:16:46;;;;;;;12.90;10.20;;;;;;;15.72;69.64;101051.83;112681;1241;21967;-82
2023/05/25 05:19:19;;;;;;;14.70;10.70;;;;;;;16.22;68.73;101051.83;112073;1247;23643;-81
2023/05/25 05:21:53;;;;;;;15.20;10.80;;;;;;;16.65;67.38;101052.46;112047;1247;21959;-80
2023/05/25 05:24:28;;;;;;;15.40;10.30;;;;;;;17.04;65.95;101051.67;112287;1247;22414;-80
2023/05/25 05:27:03;;;;;;;12.70;9.10;;;;;;;17.40;64.82;101048.45;111862;1247;21982;-80
2023/05/25 05:29:49;;;;;;;12.90;9.80;;;;;;;17.78;63.31;101050.59;112113;1247;21982;-81
2023/05/25 05:32:21;;;;;;;15.80;9.60;;;;;;;18.02;61.94;101046.05;111692;1252;23694;-80
2023/05/25 05:34:59;;;;;;;13.60;8.90;;;;;;;18.26;61.10;101050.30;111942;1252;21922;-82
2023/05/25 05:37:45;;;;;;;12.10;8.90;;;;;;;18.59;59.90;101054.67;111902;1246;21970;-79
2023/05/25 05:40:25;;;;;;;10.70;8.30;;;;;;;18.77;58.48;101055.19;112598;1247;22391;-81
2023/05/25 05:43:11;;;;;;;15.30;8.70;;;;;;;18.99;58.30;101056.14;112219;1247;22202;-79
2023/05/25 05:45:48;;;;;;;13.20;8.40;;;;;;;19.32;57.78;101058.02;112233;1241;21981;-81
2023/05/25 05:48:41;;;;;;;11.90;6.60;;;;;;;19.61;56.06;101058.95;112677;1242;21961;-80
2023/05/25 05:51:21;;;;;;;11.20;7.50;;;;;;;19.72;55.01;101060.91;112557;1241;21964;-79
2023/05/25 05:53:56;;;;;;;12.10;7.40;;;;;;;19.96;55.29;101058.26;112575;1241;21958;-79
2023/05/25 05:56:37;;;;;;;10.90;7.60;;;;;;;20.16;53.58;101062.48;112620;1236;23600;-80
2023/05/25 05:59:30;;;;;;;12.80;7.30;;;;;;;20.24;52.74;101067.08;113556;1235;22702;-80
2023/05/25 06:02:21;;;;;;;11.10;6.80;;;;;;;20.33;52.45;101069.30;113740;1235;21973;-79
2023/05/25 06:04:58;;;;;;;13.20;7.20;;;;;;;20.60;52.36;101066.95;113520;1235;24286;-78
2023/05/25 06:07:40;;;;;;;14.10;6.40;;;;;;;20.76;51.85;101067.77;113543;1235;21967;-82
2023/05/25 06:10:33;;;;;;;12.60;7.60;;;;;;;20.93;50.92;101066.81;113305;1235;23596;-81
2023/05/25 06:13:15;;;;;;;13.50;7.20;;;;;;;21.13;50.53;101069.30;113449;1235;23671;-82
2023/05/25 06:15:59;;;;;;;12.70;7.30;;;;;;;21.17;49.58;101069.33;113367;1235;22151;-81
2023/05/25 06:18:42;;;;;;;13.10;7.00;;;;;;;21.22;49.28;101068.13;113468;1235;22051;-82
2023/05/25 06:21:18;;;;;;;13.40;6.60;;;;;;;21.36;49.46;101067.80;112666;1241;21944;-82
2023/05/25 06:23:57;;;;;;;14.50;7.10;;;;;;;21.59;49.07;101067.05;112791;1240;22015;-78
2023/05/25 06:26:39;;;;;;;17.80;6.70;;;;;;;21.82;48.77;101070.34;112447;1240;22614;-83
2023/05/25 06:29:43;;;;;;;10.60;6.90;;;;;;;22.08;47.72;101074.98;113338;1241;23709;-81
2023/05/25 06:32:28;;;;;;;11.30;6.40;;;;;;;22.28;47.01;101072.30;113018;1241;23033;-83
2023/05/25 06:35:18;;;;;;;14.40;6.70;;;;;;;22.52;46.77;101073.85;112995;1241;22970;-78
2023/05/25 06:38:11;;;;;;;12.00;7.10;;;;;;;22.74;46.08;101077.48;113203;1240;21945;-80
2023/05/25 06:41:01;;;;;;;11.10;7.00;;;;;;;22.90;45.78;101078.16;113682;1235;21936;-79
2023/05/25 06:43:48;;;;;;;9.60;6.20;;;;;;;23.05;44.73;101075.09;113460;1235;21944;-78
2023/05/25 06:46:43;;;;;;;8.20;6.00;;;;;;;23.03;44.28;101074.55;113283;1232;23074;-80
2023/05/25 06:49:36;;;;;;;14.20;6.50;;;;;;;23.14;44.69;101071.52;113415;1235;23688;-81
2023/05/25 06:52:12;;;;;;;15.00;6.20;;;;;;;23.42;44.58;101074.04;112714;1241;23051;-78
2023/05/25 06:54:48;;;;;;;12.60;5.90;;;;;;;23.69;43.94;101072.73;112453;1241;22699;-77
2023/05/25 06:57:26;;;;;;;9.50;6.20;;;;;;;23.88;43.08;101072.69;112458;1241;21943;-79
2023/05/25 06:59:54;;;;;;;12.00;5.20;;;;;;;23.97;42.43;101070.52;112739;1241;21960;-76
2023/05/25 07:02:26;;;;;;;10.70;5.90;;;;;;;24.11;42.88;101069.15;112515;1240;23033;-78
2023/05/25 07:04:55;;;;;;;11.90;5.30;;;;;;;24.28;42.95;101067.59;112051;1245;23243;-76
2023/05/25 07:07:26;;;;;;;9.40;6.20;;;;;;;24.38;42.41;101065.11;111372;1249;21983;-75
2023/05/25 07:09:55;;;;;;;;;;;;;;;24.34;41.81;101060.65;111280;1251;22189;-76
2023/05/25 07:12:23;;;;;;;9.00;5.50;;;;;;;24.24;42.29;101062.94;111606;1250;23584;-76
2023/05/25 07:14:59;;;;;;;8.80;6.50;;;;;;;24.13;41.66;101065.97;111595;1244;22014;-78
2023/05/25 07:17:39;;;;;;;10.90;6.00;;;;;;;23.99;42.27;101072.13;111238;1253;21967;-76
2023/05/25 07:20:11;;;;;;;8.40;6.00;;;;;;;23.92;41.77;101069.53;111371;1253;23066;-74
2023/05/25 07:22:42;;;;;;;10.50;6.30;;;;;;;23.91;42.44;101067.45;111115;1254;22008;-76
2023/05/25 07:25:13;;;;;;;13.20;6.40;;;;;;;24.12;42.87;101068.54;111378;1251;21981;-76
2023/05/25 07:27:47;;;;;;;10.00;6.40;;;;;;;24.47;42.72;101068.27;111663;1246;23720;-76
2023/05/25 07:30:16;;;;;;;13.40;7.60;;;;;;;24.75;41.45;101071.60;111998;1247;21955;-75
2023/05/25 07:32:45;;;;;;;10.70;6.50;;;;;;;24.76;40.14;101075.98;111572;1250;23029;-75
2023/05/25 07:35:13;;;;;;;16.20;7.40;;;;;;;24.49;39.87;101076.14;111743;1245;23063;-74
2023/05/25 07:37:44;;;;;;;7.90;6.30;;;;;;;24.31;40.81;101077.09;111662;1250;23716;-77
2023/05/25 07:40:12;;;;;;;13.30;8.10;;;;;;;24.46;41.77;101079.08;111706;1246;23746;-76
2023/05/25 07:42:41;;;;;;;16.00;7.10;;;;;;;24.69;40.76;101082.58;112166;1246;22712;-78
2023/05/25 07:45:14;;;;;;;11.60;6.80;;;;;;;24.60;40.18;101082.13;111685;1250;21971;-76
2023/05/25 07:47:45;;;;;;;13.70;6.90;;;;;;;24.65;40.96;101085.75;111425;1250;22284;-78
2023/05/25 07:50:17;;;;;;;13.20;7.00;;;;;;;24.86;40.86;101084.35;111747;1245;22900;-75
2023/05/25 07:52:45;;;;;;;16.80;8.50;;;;;;;24.87;39.71;101088.34;111955;1248;22702;-76
2023/05/25 07:55:14;;;;;;;18.50;8.00;;;;;;;24.64;39.49;101086.95;111770;1245;22022;-76
2023/05/25 07:57:45;;;;;;;16.50;6.90;;;;;;;24.33;39.56;101084.95;112084;1245;23706;-76
2023/05/25 08:00:15;;;;;;;16.70;7.10;;;;;;;24.17;40.46;101084.48;112041;1245;21957;-78
2023/05/25 08:02:51;;;;;;;14.50;7.00;;;;;;;24.10;40.69;101082.20;112103;1242;23635;-80
2023/05/25 08:05:58;;;;;;;10.10;6.80;;;;;;;23.87;40.85;101087.66;112629;1242;22437;-83
2023/05/25 08:08:48;;;;;;;17.90;7.50;;;;;;;23.51;41.77;101088.08;112674;1242;22868;-79
2023/05/25 08:11:28;;;;;;;8.60;7.20;;;;;;;23.65;43.11;101092.45;112987;1235;23036;-79
2023/05/25 08:13:59;;;;;;;10.30;6.90;;;;;;;23.72;41.63;101099.40;113276;1235;23604;-76
2023/05/25 08:16:29;;;;;;;12.20;6.60;;;;;;;23.49;41.11;101098.25;113512;1235;21948;-78
2023/05/25 08:19:20;;;;;;;8.30;6.20;;;;;;;23.21;41.50;101102.03;113336;1235;22172;-82
2023/05/25 08:22:05;;;;;;;10.70;6.30;;;;;;;23.03;42.18;101105.37;113061;1235;24349;-77
2023/05/25 08:24:44;;;;;;;10.80;7.60;;;;;;;22.86;42.00;101107.20;113087;1235;22670;-78
2023/05/25 08:27:20;;;;;;;11.70;7.30;;;;;;;22.58;42.16;101105.48;113276;1235;22160;-76
2023/05/25 08:30:01;;;;;;;8.30;7.20;;;;;;;22.31;42.47;101099.00;113299;1235;21956;-78
2023/05/25 08:33:05;;;;;;;15.60;8.00;;;;;;;22.05;43.13;101099.29;113341;1235;21969;-78
2023/05/25 08:35:55;;;;;;;17.30;8.00;;;;;;;21.80;43.87;101099.56;113298;1235;23602;-80
2023/05/25 08:38:29;;;;;;;10.50;8.20;;;;;;;21.74;44.62;101104.81;113216;1235;23675;-77
2023/05/25 08:41:14;;;;;;;16.00;7.70;;;;;;;21.74;45.11;101107.24;113056;1235;23010;-82
2023/05/25 08:43:54;;;;;;;10.40;8.40;;;;;;;21.76;44.87;101108.86;112975;1235;21998;-77
2023/05/25 08:46:32;;;;;;;11.80;7.30;;;;;;;21.56;44.22;101107.33;113114;1235;23665;-77
2023/05/25 08:49:18;;;;;;;10.50;7.30;;;;;;;21.30;44.84;101097.46;113257;1235;22116;-77
2023/05/25 08:52:00;;;;;;;13.50;8.00;;;;;;;21.18;45.76;101097.62;112416;1241;23168;-77
2023/05/25 08:54:37;;;;;;;11.70;8.40;;;;;;;21.17;46.05;101098.58;112431;1241;21968;-78
2023/05/25 08:57:36;;;;;;;12.20;7.10;;;;;;;21.15;46.14;101099.06;112137;1241;23777;-80
2023/05/25 09:00:18;;;;;;;7.90;7.10;;;;;;;21.06;46.04;101102.54;112665;1241;22045;-79
2023/05/25 09:03:28;;;;;;;12.90;7.60;;;;;;;20.87;45.86;101099.04;112392;1241;22803;-80
2023/05/25 09:06:13;;;;;;;10.20;7.50;;;;;;;20.64;46.59;101098.35;112364;1241;24492;-77
2023/05/25 09:08:44;;;;;;;11.50;8.20;;;;;;;20.65;47.16;101096.82;111765;1246;23037;-77
2023/05/25 09:11:35;;;;;;;8.30;6.40;;;;;;;20.77;47.57;101097.23;112475;1243;22168;-77
2023/05/25 09:14:28;;;;;;;9.10;7.10;;;;;;;20.98;47.64;101095.98;112620;1242;22971;-77
2023/05/25 09:17:11;;;;;;;10.50;7.10;;;;;;;21.13;46.84;101097.39;112185;1242;21966;-78
2023/05/25 09:19:58;;;;;;;10.60;7.20;;;;;;;21.11;46.35;101098.28;112257;1242;23002;-80
2023/05/25 09:22:30;;;;;;;11.60;9.50;;;;;;;21.05;46.33;101103.97;112695;1242;23607;-77
2023/05/25 09:25:20;;;;;;;10.50;7.30;;;;;;;21.00;46.34;101106.10;110663;1242;2611866;-80
2023/05/25 09:27:57;;;;;;;13.70;8.20;;;;;;;20.93;46.50;101106.09;112428;1242;21965;-80
2023/05/25 09:31:19;;;;;;;9.30;6.70;;;;;;;20.86;46.96;101107.23;112342;1242;21937;-78
2023/05/25 09:34:01;;;;;;;;;;;;;;;;;;;;;
2023/05/25 09:36:49;;;;;;;11.70;6.60;;;;;;;21.00;47.12;101106.48;112888;1239;22022;-78
2023/05/25 09:39:25;;;;;;;13.10;7.10;;;;;;;21.14;47.05;101108.14;112598;1240;24315;-76
2023/05/25 09:41:56;;;;;;;11.60;7.00;;;;;;;21.22;46.67;101108.84;112408;1241;23078;-76
2023/05/25 09:44:29;;;;;;;18.00;7.80;;;;;;;21.26;46.57;101111.73;112416;1241;22473;-78
2023/05/25 09:47:05;;;;;;;14.80;7.70;;;;;;;21.31;46.36;101108.38;112602;1241;21944;-77
2023/05/25 09:49:36;;;;;;;26.30;8.00;;;;;;;21.38;46.38;101111.80;112043;1245;22044;-78
2023/05/25 09:52:08;;;;;;;14.00;7.70;;;;;;;21.40;45.95;101111.45;112348;1245;21959;-78
2023/05/25 09:54:39;;;;;;;12.90;7.50;;;;;;;21.39;45.93;101112.25;111723;1249;23255;-76
2023/05/25 09:57:19;;;;;;;10.40;7.80;;;;;;;21.39;46.08;101116.50;111697;1249;23600;-80
2023/05/25 09:59:51;;;;;;;15.20;8.00;;;;;;;21.35;45.75;101114.11;111712;1249;23030;-77
2023/05/25 10:02:23;;;;;;;10.20;6.40;;;;;;;21.33;45.70;101112.48;111576;1251;23617;-77
2023/05/25 10:04:57;;;;;;;14.00;7.70;;;;;;;21.27;45.86;101118.24;111391;1254;22206;-76
2023/05/25 10:07:31;;;;;;;27.10;7.30;;;;;;;21.17;45.89;101120.48;111498;1249;22880;-77
2023/05/25 10:10:06;;;;;;;13.50;6.70;;;;;;;21.09;46.28;101121.25;111741;1248;21984;-77
2023/05/25 10:12:39;;;;;;;9.30;7.20;;;;;;;21.09;46.60;101120.54;111454;1250;22060;-79
2023/05/25 10:15:12;;;;;;;10.20;7.40;;;;;;;21.12;46.54;101124.07;111474;1250;21961;-77
2023/05/25 10:17:55;;;;;;;14.30;8.40;;;;;;;21.10;46.28;101125.98;111451;1250;22511;-76
2023/05/25 10:20:24;;;;;;;10.70;7.30;;;;;;;20.99;46.42;101125.64;111513;1249;23181;-78
2023/05/25 10:23:16;;;;;;;14.20;8.00;;;;;;;21.00;46.72;101126.80;111446;1247;24299;-77
2023/05/25 10:25:57;;;;;;;11.00;7.30;;;;;;;21.10;47.06;101125.79;111765;1248;22232;-78
2023/05/25 10:28:43;;;;;;;12.00;8.60;;;;;;;21.16;46.80;101125.73;111885;1247;24084;-77
2023/05/25 10:31:18;;;;;;;9.80;7.80;;;;;;;21.13;46.68;101123.78;111349;1253;23584;-77
2023/05/25 10:33:47;;;;;;;12.60;8.00;;;;;;;21.17;46.98;101120.65;111369;1252;23088;-77
2023/05/25 10:36:22;;;;;;;11.40;7.30;;;;;;;21.29;46.97;101121.40;111089;1256;21966;-77
2023/05/25 10:39:02;;;;;;;8.50;7.10;;;;;;;21.49;47.09;101121.80;111114;1255;23068;-77
2023/05/25 10:41:34;;;;;;;11.90;6.90;;;;;;;21.72;46.54;101121.23;110958;1256;23731;-76
2023/05/25 10:44:05;;;;;;;11.70;6.80;;;;;;;21.87;46.06;101111.79;111147;1256;21967;-78
2023/05/25 10:46:42;;;;;;;11.10;6.60;;;;;;;21.92;45.43;101112.33;111269;1252;22988;-77
2023/05/25 10:49:24;;;;;;;11.90;6.80;;;;;;;21.94;45.54;101110.58;112068;1241;22193;-77
2023/05/25 10:52:03;;;;;;;10.40;6.50;;;;;;;21.98;45.52;101111.20;112812;1240;24032;-77
2023/05/25 10:54:44;;;;;;;10.10;7.20;;;;;;;22.00;45.47;101115.45;112993;1235;21942;-80
2023/05/25 10:57:43;;;;;;;12.10;6.50;;;;;;;22.04;45.24;101110.73;113304;1236;23776;-77
2023/05/25 11:00:40;;;;;;;11.30;6.50;;;;;;;22.01;45.10;101108.31;113207;1235;22500;-82
2023/05/25 11:03:23;;;;;;;14.40;6.60;;;;;;;21.93;44.96;101107.31;113000;1235;21957;-79
2023/05/25 11:05:57;;;;;;;9.30;5.90;;;;;;;21.90;45.20;101106.66;113264;1235;21957;-79
2023/05/25 11:09:04;;;;;;;8.70;6.40;;;;;;;21.87;45.15;101101.70;112451;1242;23767;-80
2023/05/25 11:11:48;;;;;;;14.10;6.60;;;;;;;21.86;45.39;101100.70;112342;1242;22083;-80
2023/05/25 11:14:26;;;;;;;12.00;6.80;;;;;;;22.03;45.52;101102.52;112796;1242;21985;-78
2023/05/25 11:17:15;;;;;;;11.40;6.60;;;;;;;22.22;45.34;101102.52;112480;1242;23704;-79
2023/05/25 11:20:26;;;;;;;14.10;7.80;;;;;;;22.36;44.84;101099.88;112637;1242;23219;-77
2023/05/25 11:23:34;;;;;;;9.10;6.30;;;;;;;22.42;44.79;101100.46;112062;1247;22409;-80
2023/05/25 11:26:34;;;;;;;9.80;5.30;;;;;;;22.52;44.66;101099.14;111619;1246;21988;-78
2023/05/25 11:29:24;;;;;;;14.40;6.70;;;;;;;22.63;44.48;101102.08;111911;1246;23584;-77
2023/05/25 11:32:06;;;;;;;14.20;7.20;;;;;;;22.64;44.03;101104.88;112157;1246;21997;-78
2023/05/25 11:35:01;;;;;;;12.60;6.50;;;;;;;22.69;44.10;101111.01;111898;1246;24155;-78
2023/05/25 11:37:54;;;;;;;11.50;6.30;;;;;;;22.73;43.58;101110.01;112154;1247;21996;-79
2023/05/25 11:40:43;;;;;;;10.10;6.40;;;;;;;22.63;43.23;101106.02;112259;1241;22682;-76
2023/05/25 11:43:25;;;;;;;11.80;6.20;;;;;;;22.44;43.31;101099.95;111805;1248;23616;-76
2023/05/25 11:46:01;;;;;;;12.10;6.30;;;;;;;22.30;43.65;101101.33;112438;1242;21963;-77
2023/05/25 11:49:02;;;;;;;9.00;5.60;;;;;;;22.29;44.02;101101.29;112623;1242;22755;-83
2023/05/25 11:51:38;;;;;;;11.00;5.40;;;;;;;22.34;44.32;101098.93;112509;1242;21989;-77
2023/05/25 11:54:34;;;;;;;10.00;6.10;;;;;;;22.44;44.31;101094.31;112727;1242;24299;-76
2023/05/25 11:57:24;;;;;;;9.40;5.90;;;;;;;22.51;44.38;101087.17;112407;1242;22098;-77